createdAt,value
2022-12-04T00:01:51.384Z,99.61
2022-12-04T00:04:55.143Z,99.33
2022-12-04T00:07:59.242Z,98.66
2022-12-04T00:11:03.335Z,99.46
2022-12-04T00:14:08.504Z,99.20
2022-12-04T00:17:12.215Z,100.00
2022-12-04T00:20:15.984Z,100.00
2022-12-04T00:23:19.854Z,100.00
2022-12-04T00:26:25.329Z,100.00
2022-12-04T00:29:30.747Z,100.00
2022-12-04T00:32:34.523Z,100.00
2022-12-04T00:35:38.207Z,100.00
2022-12-04T00:38:42.965Z,100.00
2022-12-04T00:41:46.634Z,100.00
2022-12-04T00:44:52.043Z,100.00
2022-12-04T00:47:55.850Z,100.00
2022-12-04T00:51:03.701Z,100.00
2022-12-04T00:54:07.505Z,100.00
2022-12-04T00:57:11.244Z,100.00
2022-12-04T01:00:17.014Z,100.00
2022-12-04T01:03:20.749Z,100.00
2022-12-04T01:06:26.128Z,100.00
2022-12-04T01:09:29.954Z,100.00
2022-12-04T01:12:33.564Z,100.00
2022-12-04T01:15:43.894Z,100.00
2022-12-04T01:18:48.027Z,100.00
2022-12-04T01:21:51.806Z,100.00
2022-12-04T01:24:57.190Z,100.00
2022-12-04T01:28:00.983Z,100.00
2022-12-04T01:31:08.803Z,100.00
2022-12-04T01:34:12.452Z,100.00
2022-12-04T01:37:16.265Z,100.00
2022-12-04T01:40:20.033Z,100.00
2022-12-04T01:43:24.606Z,100.00
2022-12-04T01:46:29.554Z,100.00
2022-12-04T01:49:39.653Z,100.00
2022-12-04T01:52:43.932Z,100.00
2022-12-04T01:55:49.012Z,100.00
2022-12-04T01:58:55.560Z,100.00
2022-12-04T02:02:05.877Z,100.00
2022-12-04T02:05:13.221Z,100.00
2022-12-04T02:08:17.297Z,100.00
2022-12-04T02:11:30.925Z,100.00
2022-12-04T02:14:43.263Z,100.00
2022-12-04T02:17:55.547Z,100.00
2022-12-04T02:21:07.694Z,100.00
2022-12-04T02:24:27.342Z,100.00
2022-12-04T02:27:59.883Z,100.00
2022-12-04T02:31:06.397Z,100.00
2022-12-04T02:34:16.949Z,100.00
2022-12-04T02:37:29.274Z,100.00
2022-12-04T02:40:40.260Z,100.00
2022-12-04T02:43:48.912Z,100.00
2022-12-04T02:46:57.694Z,100.00
2022-12-04T02:50:03.297Z,100.00
2022-12-04T02:53:12.404Z,100.00
2022-12-04T02:56:20.972Z,100.00
2022-12-04T02:59:31.807Z,100.00
2022-12-04T03:02:39.568Z,100.00
2022-12-04T03:05:47.972Z,100.00
2022-12-04T03:08:56.845Z,100.00
2022-12-04T03:12:07.784Z,100.00
2022-12-04T03:15:19.362Z,100.00
2022-12-04T03:18:28.994Z,100.00
2022-12-04T03:21:38.222Z,100.00
2022-12-04T03:24:46.984Z,100.00
2022-12-04T03:27:56.244Z,100.00
2022-12-04T03:31:06.256Z,100.00
2022-12-04T03:34:12.309Z,100.00
2022-12-04T03:37:20.061Z,100.00
2022-12-04T03:40:29.430Z,100.00
2022-12-04T03:43:39.251Z,100.00
2022-12-04T03:46:50.823Z,100.00
2022-12-04T03:50:01.643Z,100.00
2022-12-04T03:53:11.189Z,100.00
2022-12-04T03:56:19.219Z,100.00
2022-12-04T03:59:28.574Z,100.00
2022-12-04T04:02:39.652Z,100.00
2022-12-04T04:05:47.611Z,100.00
2022-12-04T04:08:56.374Z,100.00
2022-12-04T04:12:04.535Z,100.00
2022-12-04T04:15:30.040Z,100.00
2022-12-04T04:18:52.709Z,100.00
2022-12-04T04:22:14.405Z,100.00
2022-12-04T04:25:21.995Z,100.00
2022-12-04T04:28:30.991Z,100.00
2022-12-04T04:31:41.041Z,100.00
2022-12-04T04:34:52.103Z,100.00
2022-12-04T04:38:02.764Z,100.00
2022-12-04T04:41:13.231Z,100.00
2022-12-04T04:44:22.710Z,100.00
2022-12-04T04:47:32.147Z,100.00
2022-12-04T04:50:38.910Z,100.00
2022-12-04T04:53:46.984Z,100.00
2022-12-04T04:56:50.855Z,100.00
2022-12-04T04:59:54.618Z,100.00
2022-12-04T05:02:58.434Z,100.00
2022-12-04T05:06:03.533Z,100.00
2022-12-04T05:09:07.280Z,100.00
2022-12-04T05:12:11.630Z,100.00
2022-12-04T05:15:15.239Z,100.00
2022-12-04T05:18:18.935Z,100.00
2022-12-04T05:21:23.920Z,100.00
2022-12-04T05:24:27.724Z,100.00
2022-12-04T05:27:32.174Z,100.00
2022-12-04T05:30:36.331Z,100.00
2022-12-04T05:33:39.847Z,100.00
2022-12-04T05:36:44.799Z,100.00
2022-12-04T05:39:49.188Z,99.92
2022-12-04T05:42:52.743Z,100.00
2022-12-04T05:45:56.734Z,100.00
2022-12-04T05:49:00.338Z,100.00
2022-12-04T05:52:07.357Z,100.00
2022-12-04T05:55:11.097Z,100.00
2022-12-04T05:58:14.691Z,100.00
2022-12-04T06:01:21.173Z,100.00
2022-12-04T06:04:25.115Z,100.00
2022-12-04T06:07:30.270Z,100.00
2022-12-04T06:10:34.043Z,100.00
2022-12-04T06:13:38.004Z,100.00
2022-12-04T06:16:43.638Z,100.00
2022-12-04T06:19:47.598Z,100.00
2022-12-04T06:22:52.834Z,100.00
2022-12-04T06:25:58.004Z,100.00
2022-12-04T06:29:04.547Z,100.00
2022-12-04T06:32:08.304Z,100.00
2022-12-04T06:35:12.103Z,100.00
2022-12-04T06:38:21.143Z,100.00
2022-12-04T06:41:26.832Z,99.70
2022-12-04T06:44:30.614Z,99.14
2022-12-04T06:47:45.523Z,98.88
2022-12-04T06:50:49.244Z,98.71
2022-12-04T06:53:56.823Z,98.64
2022-12-04T06:57:01.226Z,98.43
2022-12-04T07:00:05.954Z,99.59
2022-12-04T07:03:09.773Z,98.99
2022-12-04T07:06:19.314Z,99.29
2022-12-04T07:09:24.741Z,98.96
2022-12-04T07:12:28.564Z,99.24
2022-12-04T07:15:34.795Z,100.00
2022-12-04T07:18:42.371Z,100.00
2022-12-04T07:21:48.901Z,98.98
2022-12-04T07:24:54.323Z,100.00
2022-12-04T07:27:58.804Z,99.96
2022-12-04T07:31:09.224Z,99.46
2022-12-04T07:34:18.136Z,99.27
2022-12-04T07:37:21.883Z,99.92
2022-12-04T07:40:27.056Z,100.00
2022-12-04T07:43:31.723Z,99.18
2022-12-04T07:46:35.556Z,99.31
2022-12-04T07:49:39.564Z,100.00
2022-12-04T07:52:43.165Z,99.29
2022-12-04T07:55:53.653Z,98.77
2022-12-04T07:58:57.313Z,99.66
2022-12-04T08:02:01.132Z,100.00
2022-12-04T08:05:05.023Z,99.94
2022-12-04T08:08:09.041Z,99.88
2022-12-04T08:11:16.526Z,100.00
2022-12-04T08:14:20.284Z,100.00
2022-12-04T08:17:24.081Z,100.00
2022-12-04T08:20:27.924Z,100.00
2022-12-04T08:23:31.690Z,99.18
2022-12-04T08:26:36.925Z,99.75
2022-12-04T08:29:40.845Z,98.37
2022-12-04T08:32:45.703Z,100.00
2022-12-04T08:35:49.394Z,99.60
2022-12-04T08:38:53.233Z,99.41
2022-12-04T08:41:58.470Z,99.74
2022-12-04T08:45:02.149Z,98.80
2022-12-04T08:48:06.376Z,99.74
2022-12-04T08:51:15.871Z,100.00
2022-12-04T08:54:19.774Z,100.00
2022-12-04T08:57:24.884Z,100.00
2022-12-04T09:00:28.727Z,100.00
2022-12-04T09:03:32.476Z,100.00
2022-12-04T09:06:36.144Z,100.00
2022-12-04T09:09:44.932Z,99.98
2022-12-04T09:12:53.169Z,99.67
2022-12-04T09:15:57.097Z,98.59
2022-12-04T09:19:00.993Z,99.10
2022-12-04T09:22:04.736Z,98.64
2022-12-04T09:25:09.244Z,99.41
2022-12-04T09:28:14.317Z,99.38
2022-12-04T09:31:18.246Z,100.00
2022-12-04T09:34:22.084Z,99.53
2022-12-04T09:37:25.723Z,98.73
2022-12-04T09:40:37.736Z,100.00
2022-12-04T09:43:49.354Z,98.81
2022-12-04T09:46:56.556Z,98.42
2022-12-04T09:50:05.423Z,99.04
2022-12-04T09:53:15.654Z,98.67
2022-12-04T09:56:21.277Z,97.94
2022-12-04T09:59:29.214Z,97.67
2022-12-04T10:02:38.879Z,98.02
2022-12-04T10:05:56.560Z,98.95
2022-12-04T10:09:04.734Z,98.04
2022-12-04T10:12:17.744Z,97.85
2022-12-04T10:15:31.227Z,98.53
2022-12-04T10:18:46.044Z,97.05
2022-12-04T10:22:05.723Z,96.83
2022-12-04T10:25:14.954Z,96.47
2022-12-04T10:28:27.367Z,95.94
2022-12-04T10:31:36.841Z,95.84
2022-12-04T10:34:45.633Z,96.24
2022-12-04T10:37:54.527Z,96.14
2022-12-04T10:41:07.743Z,96.12
2022-12-04T10:44:18.559Z,97.20
2022-12-04T10:47:26.612Z,97.29
2022-12-04T10:50:31.743Z,98.02
2022-12-04T10:53:39.144Z,96.50
2022-12-04T10:56:53.323Z,95.60
2022-12-04T11:00:00.529Z,97.58
2022-12-04T11:03:12.789Z,96.03
2022-12-04T11:06:17.404Z,95.65
2022-12-04T11:09:24.762Z,95.92
2022-12-04T11:12:29.415Z,95.81
2022-12-04T11:15:38.164Z,96.37
2022-12-04T11:18:52.495Z,96.56
2022-12-04T11:22:00.513Z,95.90
2022-12-04T11:25:05.813Z,95.85
2022-12-04T11:28:41.556Z,96.31
2022-12-04T11:31:49.477Z,95.74
2022-12-04T11:35:00.954Z,95.02
2022-12-04T11:38:15.247Z,95.59
2022-12-04T11:41:28.104Z,96.11
2022-12-04T11:44:34.334Z,95.75
2022-12-04T11:47:38.842Z,96.83
2022-12-04T11:50:51.514Z,96.78
2022-12-04T11:54:02.264Z,97.18
2022-12-04T11:57:17.765Z,96.75
2022-12-04T12:00:24.385Z,95.99
2022-12-04T12:03:37.883Z,95.73
2022-12-04T12:07:00.343Z,95.67
2022-12-04T12:10:12.823Z,95.72
2022-12-04T12:13:26.842Z,96.25
2022-12-04T12:16:48.533Z,96.40
2022-12-04T12:20:06.857Z,96.56
2022-12-04T12:23:33.163Z,96.69
2022-12-04T12:26:47.444Z,97.05
2022-12-04T12:30:01.365Z,96.03
2022-12-04T12:33:16.293Z,95.92
2022-12-04T12:36:25.791Z,94.89
2022-12-04T12:39:40.553Z,95.09
2022-12-04T12:42:56.623Z,94.32
2022-12-04T12:46:08.595Z,94.96
2022-12-04T12:49:20.424Z,93.99
2022-12-04T12:52:33.503Z,93.36
2022-12-04T12:55:46.823Z,93.68
2022-12-04T12:58:56.395Z,93.60
2022-12-04T13:02:08.582Z,91.54
2022-12-04T13:05:18.687Z,91.85
2022-12-04T13:08:28.112Z,92.79
2022-12-04T13:11:35.974Z,91.37
2022-12-04T13:14:45.949Z,91.15
2022-12-04T13:17:57.693Z,90.46
2022-12-04T13:21:07.393Z,89.42
2022-12-04T13:24:41.032Z,89.24
2022-12-04T13:28:03.105Z,89.84
2022-12-04T13:31:21.583Z,89.25
2022-12-04T13:34:50.004Z,88.68
2022-12-04T13:38:10.373Z,89.61
2022-12-04T13:41:22.233Z,89.60
2022-12-04T13:44:31.903Z,89.85
2022-12-04T13:47:39.063Z,89.88
2022-12-04T13:50:45.103Z,89.63
2022-12-04T13:53:51.395Z,89.99
2022-12-04T13:56:59.435Z,90.43
2022-12-04T14:00:27.533Z,91.26
2022-12-04T14:03:36.333Z,90.85
2022-12-04T14:06:46.824Z,90.19
2022-12-04T14:09:55.918Z,92.16
2022-12-04T14:13:04.903Z,92.51
2022-12-04T14:16:22.925Z,91.70
2022-12-04T14:19:35.986Z,91.20
2022-12-04T14:22:44.954Z,90.74
2022-12-04T14:25:48.623Z,91.26
2022-12-04T14:28:52.724Z,90.98
2022-12-04T14:32:01.814Z,91.84
2022-12-04T14:35:06.423Z,92.64
2022-12-04T14:38:19.746Z,93.13
2022-12-04T14:41:28.432Z,93.98
2022-12-04T14:44:33.543Z,93.23
2022-12-04T14:47:44.907Z,93.54
2022-12-04T14:50:59.246Z,92.16
2022-12-04T14:54:15.034Z,92.61
2022-12-04T14:57:44.553Z,91.84
2022-12-04T15:00:52.673Z,91.58
2022-12-04T15:04:00.033Z,92.35
2022-12-04T15:07:04.214Z,91.34
2022-12-04T15:10:38.471Z,92.69
2022-12-04T15:13:42.205Z,92.94
2022-12-04T15:16:45.783Z,94.36
2022-12-04T15:19:51.023Z,92.61
2022-12-04T15:22:59.095Z,92.06
2022-12-04T15:26:06.254Z,92.42
2022-12-04T15:29:11.144Z,92.21
2022-12-04T15:32:15.193Z,92.79
2022-12-04T15:35:27.163Z,93.21
2022-12-04T15:38:31.153Z,91.93
2022-12-04T15:41:37.216Z,91.69
2022-12-04T15:44:40.946Z,91.98
2022-12-04T15:47:53.853Z,91.49
2022-12-04T15:51:05.832Z,92.23
2022-12-04T15:54:16.351Z,91.18
2022-12-04T15:57:28.234Z,91.66
2022-12-04T16:00:34.485Z,93.07
2022-12-04T16:03:45.629Z,92.54
2022-12-04T16:06:53.997Z,94.70
2022-12-04T16:10:03.758Z,93.52
2022-12-04T16:13:07.874Z,94.68
2022-12-04T16:16:17.389Z,95.08
2022-12-04T16:19:31.223Z,95.59
2022-12-04T16:22:36.374Z,95.56
2022-12-04T16:25:40.074Z,95.80
2022-12-04T16:28:44.130Z,94.84
2022-12-04T16:31:47.919Z,95.15
2022-12-04T16:34:51.643Z,95.57
2022-12-04T16:37:56.853Z,96.04
2022-12-04T16:41:00.543Z,95.09
2022-12-04T16:44:04.334Z,94.19
2022-12-04T16:47:08.285Z,94.03
2022-12-04T16:50:12.194Z,94.07
2022-12-04T16:53:19.945Z,93.93
2022-12-04T16:56:24.322Z,94.61
2022-12-04T16:59:27.944Z,94.74
2022-12-04T17:02:32.154Z,95.39
2022-12-04T17:05:36.077Z,94.46
2022-12-04T17:08:41.226Z,95.25
2022-12-04T17:11:45.679Z,96.20
2022-12-04T17:14:49.403Z,95.65
2022-12-04T17:17:53.126Z,95.44
2022-12-04T17:20:57.103Z,95.93
2022-12-04T17:24:02.526Z,95.65
2022-12-04T17:27:08.033Z,94.88
2022-12-04T17:30:13.614Z,95.75
2022-12-04T17:33:17.266Z,95.48
2022-12-04T17:36:25.193Z,95.28
2022-12-04T17:39:30.394Z,95.96
2022-12-04T17:42:34.584Z,95.18
2022-12-04T17:45:42.214Z,95.63
2022-12-04T17:48:46.073Z,96.43
2022-12-04T17:51:49.746Z,97.30
2022-12-04T17:54:55.333Z,96.93
2022-12-04T17:57:59.263Z,96.24
2022-12-04T18:01:04.885Z,95.70
2022-12-04T18:04:09.363Z,96.36
2022-12-04T18:07:13.124Z,95.24
2022-12-04T18:10:18.653Z,96.62
2022-12-04T18:13:22.492Z,96.52
2022-12-04T18:16:27.351Z,97.49
2022-12-04T18:19:32.084Z,95.82
2022-12-04T18:22:35.774Z,96.08
2022-12-04T18:25:40.983Z,96.12
2022-12-04T18:28:45.095Z,95.38
2022-12-04T18:31:49.073Z,96.12
2022-12-04T18:34:52.921Z,95.67
2022-12-04T18:37:57.092Z,96.53
2022-12-04T18:41:05.914Z,96.83
2022-12-04T18:44:09.614Z,95.50
2022-12-04T18:47:13.302Z,95.38
2022-12-04T18:50:17.616Z,94.17
2022-12-04T18:53:25.273Z,93.59
2022-12-04T18:56:31.063Z,93.38
2022-12-04T18:59:36.642Z,93.80
2022-12-04T19:02:40.429Z,93.47
2022-12-04T19:05:50.038Z,94.35
2022-12-04T19:08:53.783Z,93.87
2022-12-04T19:11:59.527Z,93.41
2022-12-04T19:15:03.696Z,92.80
2022-12-04T19:18:07.544Z,92.75
2022-12-04T19:21:11.294Z,93.74
2022-12-04T19:24:15.645Z,94.36
2022-12-04T19:27:20.644Z,94.52
2022-12-04T19:30:24.356Z,95.65
2022-12-04T19:33:29.467Z,95.69
2022-12-04T19:36:34.851Z,96.02
2022-12-04T19:39:38.764Z,96.73
2022-12-04T19:42:44.043Z,96.05
2022-12-04T19:45:49.911Z,94.60
2022-12-04T19:48:57.065Z,94.45
2022-12-04T19:52:00.705Z,94.93
2022-12-04T19:55:04.593Z,94.45
2022-12-04T19:58:09.765Z,94.37
2022-12-04T20:01:16.263Z,92.89
2022-12-04T20:04:20.114Z,93.14
2022-12-04T20:07:23.773Z,94.54
2022-12-04T20:10:27.522Z,95.04
2022-12-04T20:13:35.867Z,93.98
2022-12-04T20:16:40.203Z,94.06
2022-12-04T20:19:43.957Z,93.99
2022-12-04T20:22:47.665Z,94.11
2022-12-04T20:25:51.636Z,93.40
2022-12-04T20:28:58.584Z,95.26
2022-12-04T20:32:02.307Z,95.89
2022-12-04T20:35:07.253Z,94.98
2022-12-04T20:38:10.894Z,93.55
2022-12-04T20:41:16.384Z,94.42
2022-12-04T20:44:21.606Z,93.10
2022-12-04T20:47:26.004Z,92.75
2022-12-04T20:50:29.723Z,92.04
2022-12-04T20:53:33.455Z,92.39
2022-12-04T20:56:39.404Z,92.50
2022-12-04T20:59:44.484Z,92.53
2022-12-04T21:02:48.276Z,92.45
2022-12-04T21:05:52.043Z,92.15
2022-12-04T21:08:56.938Z,92.82
2022-12-04T21:12:00.720Z,93.12
2022-12-04T21:15:24.133Z,93.12
2022-12-04T21:18:27.806Z,92.26
2022-12-04T21:21:31.655Z,92.56
2022-12-04T21:24:38.872Z,92.40
2022-12-04T21:27:42.703Z,91.93
2022-12-04T21:30:47.844Z,92.05
2022-12-04T21:33:51.683Z,91.85
2022-12-04T21:36:55.414Z,91.67
2022-12-04T21:39:59.808Z,91.06
2022-12-04T21:43:03.773Z,91.78
2022-12-04T21:46:09.893Z,92.24
2022-12-04T21:49:15.004Z,92.26
2022-12-04T21:52:19.535Z,91.38
2022-12-04T21:55:23.166Z,91.76
2022-12-04T21:58:29.384Z,91.79
2022-12-04T22:01:34.750Z,91.16
2022-12-04T22:04:38.623Z,90.96
2022-12-04T22:07:42.366Z,91.19
2022-12-04T22:10:48.681Z,90.77
2022-12-04T22:13:52.353Z,90.70
2022-12-04T22:16:57.745Z,90.47
2022-12-04T22:20:01.453Z,90.36
2022-12-04T22:23:05.844Z,91.40
2022-12-04T22:26:10.663Z,91.35
2022-12-04T22:29:48.660Z,90.08
2022-12-04T22:32:39.803Z,90.76
2022-12-04T22:35:43.563Z,90.33
2022-12-04T22:39:08.221Z,90.32
2022-12-04T22:42:11.494Z,91.53
2022-12-04T22:45:15.194Z,91.91
2022-12-04T22:48:20.295Z,91.20
2022-12-04T22:51:24.215Z,90.79
2022-12-04T22:54:27.803Z,91.31
2022-12-04T22:57:31.524Z,91.69
2022-12-04T23:00:35.275Z,92.88
2022-12-04T23:03:40.723Z,91.72
2022-12-04T23:06:44.346Z,91.49
2022-12-04T23:09:48.148Z,91.66
2022-12-04T23:12:51.942Z,91.20
2022-12-04T23:15:55.665Z,90.81
2022-12-04T23:19:01.024Z,90.85
2022-12-04T23:22:04.753Z,91.83
2022-12-04T23:25:09.493Z,91.38
2022-12-04T23:28:13.186Z,90.87
2022-12-04T23:31:17.171Z,91.41
2022-12-04T23:34:22.334Z,91.24
2022-12-04T23:37:25.905Z,91.23
2022-12-04T23:40:29.614Z,91.46
2022-12-04T23:43:33.923Z,90.76
2022-12-04T23:46:38.040Z,90.24
2022-12-04T23:49:43.264Z,89.67
2022-12-04T23:52:46.954Z,90.18
2022-12-04T23:55:57.593Z,89.78
2022-12-04T23:59:01.373Z,89.33
